Portada
METAR-TAF:

METAR-TAF

Aeroports :

Doha, Qatar

latitud: 25-15-40N, longitud: 051-33-54E, altitud: 11 m

Observació

L'informe es va fer fa 28 minuts, a les 19:00 UTC
Vent 8 kt del Nord-Oest, variant entre Oest i Nord/Nord-Oest
Temperatura 41°C
Humitat 18%
Pressió 995 hPa
Visibilitat 10 km o més
sense núvols per sota de 1500 mi sense presència de cumulonimbus.

METAR: OTBD 181900Z AUTO 31008KT 280V340 CAVOK 41/12 Q0995 NOSIG

Hora: 22:28 (19:28 UTC)

Pronòstic

L'informe es va fer fa 2 hores i 27 minuts, a les 17:01 UTC
Pronòstic vàlid del 18 a les 18 UTC al 19 a les 24 UTC
Vent 8 kt del Nord-Oest
Visibilitat: 9000 m
Temporalment
l' 18 a les 18 UTC al 19 a les 04 UTC
Vent 6 kt del Oest/Sud-Oest
Temporalment
l' 18 a les 23 UTC al 19 a les 03 UTC
Vent 2 kt amb direcció variable
Temporalment
l' 19 a les 06 UTC al 19 a les 17 UTC
Vent 13 kt del Nord/Nord-Est

TAF: OTBD 181701Z 1818/1924 31008KT 9000 NSC TEMPO 1818/1904 24006KT TEMPO 1823/1903 VRB02KT TEMPO 1906/1917 02013KT

Observacions i pronòstics meteorològics de més de 4000 aeroports (METAR i TAF).

Les estacions disponibles són els punts grocs i vermells al mapa.

Posi el ratolí al punt desitjat per veure el nom de l'estació.

Feu clic per veure les observacions i els pronòstics meteorològics.

Per canviar el mapa: feu clic els botons verds amb una creu de color negre per apropar; al botó verd amb un guió per allunyar la imatge; o en les fletxes verdes per a mapes adjacents.


METAR-TAF: